ARE4082 SKCL-SKBO
Flight info
| Callsign | ARE4082 |
|---|---|
| Flight time | 0h 48m |
| Altitude | 23000 |
| Route | ULQ1K ULQ W1 TOLIM TOLIM5E |
| Aircraft | A320/M-SDE3FGHIRWY/LB1 |
Departure
| Time | 2026-04-25 01:01 |
|---|---|
| Airport | Alfonso Bonilla Aragon International Airport (SKCL) |
Arrival
| Time | 2026-04-25 01:49 |
|---|---|
| Airport | El Dorado International Airport (SKBO) |
| Time | Latitude | Longitude | Altitude | Speed | Heading |
|---|---|---|---|---|---|
| 2026-04-25 00:27 | 3.53713 | -76.38667 | 3164 ft | 0 kts | 131° |
| 2026-04-25 00:49 | 3.53728 | -76.38682 | 3165 ft | 4 kts | 148° |
| 2026-04-25 00:49 | 3.53752 | -76.38691 | 3164 ft | 4 kts | 185° |
| 2026-04-25 00:49 | 3.53773 | -76.38684 | 3164 ft | 4 kts | 210° |
| 2026-04-25 00:50 | 3.53796 | -76.38670 | 3163 ft | 4 kts | 216° |
| 2026-04-25 00:50 | 3.53818 | -76.38653 | 3163 ft | 4 kts | 217° |
| 2026-04-25 00:50 | 3.53837 | -76.38639 | 3165 ft | 4 kts | 209° |
| 2026-04-25 00:50 | 3.53859 | -76.38635 | 3165 ft | 4 kts | 151° |
| 2026-04-25 00:51 | 3.53873 | -76.38644 | 3164 ft | 2 kts | 144° |
| 2026-04-25 00:51 | 3.53852 | -76.38629 | 3162 ft | 4 kts | 143° |
| 2026-04-25 00:51 | 3.53829 | -76.38613 | 3163 ft | 4 kts | 146° |
| 2026-04-25 00:51 | 3.53824 | -76.38610 | 3162 ft | 0 kts | 147° |
| 2026-04-25 00:54 | 3.53815 | -76.38604 | 3163 ft | 4 kts | 147° |
| 2026-04-25 00:54 | 3.53781 | -76.38578 | 3162 ft | 9 kts | 143° |
| 2026-04-25 00:54 | 3.53718 | -76.38532 | 3162 ft | 13 kts | 145° |
| 2026-04-25 00:54 | 3.53636 | -76.38471 | 3164 ft | 15 kts | 145° |
| 2026-04-25 00:55 | 3.53538 | -76.38468 | 3162 ft | 14 kts | 191° |
| 2026-04-25 00:55 | 3.53440 | -76.38485 | 3162 ft | 14 kts | 188° |
| 2026-04-25 00:55 | 3.53345 | -76.38501 | 3164 ft | 14 kts | 189° |
| 2026-04-25 00:55 | 3.53247 | -76.38518 | 3164 ft | 14 kts | 190° |
| 2026-04-25 00:56 | 3.53147 | -76.38536 | 3162 ft | 15 kts | 190° |
| 2026-04-25 00:56 | 3.53052 | -76.38552 | 3162 ft | 12 kts | 189° |
| 2026-04-25 00:56 | 3.53003 | -76.38559 | 3162 ft | 4 kts | 182° |
| 2026-04-25 00:56 | 3.52982 | -76.38555 | 3162 ft | 0 kts | 164° |
| 2026-04-25 00:58 | 3.52974 | -76.38552 | 3162 ft | 2 kts | 155° |
| 2026-04-25 00:58 | 3.52958 | -76.38535 | 3162 ft | 5 kts | 118° |
| 2026-04-25 00:58 | 3.52951 | -76.38498 | 3162 ft | 6 kts | 94° |
| 2026-04-25 00:59 | 3.52974 | -76.38459 | 3162 ft | 8 kts | 44° |
| 2026-04-25 00:59 | 3.52998 | -76.38415 | 3160 ft | 5 kts | 81° |
| 2026-04-25 00:59 | 3.53023 | -76.38390 | 3160 ft | 2 kts | 19° |
| 2026-04-25 00:59 | 3.53031 | -76.38389 | 3160 ft | 0 kts | 7° |
| 2026-04-25 01:00 | 3.53077 | -76.38382 | 3160 ft | 32 kts | 9° |
| 2026-04-25 01:00 | 3.53529 | -76.38305 | 3162 ft | 97 kts | 9° |
| 2026-04-25 01:00 | 3.54373 | -76.38159 | 3165 ft | 147 kts | 9° |
| 2026-04-25 01:00 | 3.55515 | -76.37966 | 3336 ft | 174 kts | 8° |
| 2026-04-25 01:01 | 3.56701 | -76.37761 | 4005 ft | 172 kts | 8° |
| 2026-04-25 01:01 | 3.57886 | -76.37560 | 4591 ft | 177 kts | 8° |
| 2026-04-25 01:01 | 3.59158 | -76.37341 | 4788 ft | 196 kts | 9° |
| 2026-04-25 01:01 | 3.60576 | -76.37094 | 4965 ft | 215 kts | 9° |
| 2026-04-25 01:02 | 3.62073 | -76.36834 | 5425 ft | 221 kts | 10° |
| 2026-04-25 01:02 | 3.63579 | -76.36572 | 6025 ft | 223 kts | 11° |
| 2026-04-25 01:02 | 3.65121 | -76.36177 | 6446 ft | 238 kts | 17° |
| 2026-04-25 01:02 | 3.66783 | -76.35669 | 6699 ft | 262 kts | 18° |
| 2026-04-25 01:03 | 3.68586 | -76.35091 | 7097 ft | 279 kts | 18° |
| 2026-04-25 01:03 | 3.70454 | -76.34488 | 7753 ft | 285 kts | 18° |
| 2026-04-25 01:03 | 3.72360 | -76.33876 | 8445 ft | 289 kts | 18° |
| 2026-04-25 01:03 | 3.74292 | -76.33262 | 9151 ft | 293 kts | 17° |
| 2026-04-25 01:04 | 3.76253 | -76.32646 | 9855 ft | 297 kts | 17° |
| 2026-04-25 01:04 | 3.78261 | -76.32018 | 10241 ft | 312 kts | 17° |
| 2026-04-25 01:04 | 3.80409 | -76.31348 | 10374 ft | 334 kts | 17° |
| 2026-04-25 01:04 | 3.82673 | -76.30641 | 10766 ft | 344 kts | 17° |
| 2026-04-25 01:05 | 3.84948 | -76.29930 | 11320 ft | 348 kts | 17° |
| 2026-04-25 01:05 | 3.87276 | -76.29203 | 11912 ft | 352 kts | 17° |
| 2026-04-25 01:05 | 3.89625 | -76.28470 | 12510 ft | 355 kts | 16° |
| 2026-04-25 01:05 | 3.91994 | -76.27732 | 13096 ft | 359 kts | 16° |
| 2026-04-25 01:06 | 3.94388 | -76.26984 | 13673 ft | 362 kts | 16° |
| 2026-04-25 01:06 | 3.96804 | -76.26229 | 14203 ft | 365 kts | 15° |
| 2026-04-25 01:06 | 3.99240 | -76.25469 | 14704 ft | 368 kts | 15° |
| 2026-04-25 01:06 | 4.01694 | -76.24701 | 15214 ft | 371 kts | 16° |
| 2026-04-25 01:07 | 4.04168 | -76.23914 | 15722 ft | 374 kts | 18° |
| 2026-04-25 01:07 | 4.06525 | -76.22783 | 16212 ft | 379 kts | 31° |
| 2026-04-25 01:07 | 4.08591 | -76.21137 | 16719 ft | 383 kts | 44° |
| 2026-04-25 01:07 | 4.10260 | -76.19034 | 17220 ft | 387 kts | 58° |
| 2026-04-25 01:08 | 4.11436 | -76.16597 | 17700 ft | 391 kts | 69° |
| 2026-04-25 01:08 | 4.12411 | -76.14042 | 18203 ft | 394 kts | 68° |
| 2026-04-25 01:08 | 4.13400 | -76.11477 | 18654 ft | 396 kts | 68° |
| 2026-04-25 01:08 | 4.14396 | -76.08902 | 19111 ft | 398 kts | 68° |
| 2026-04-25 01:09 | 4.15402 | -76.06307 | 19559 ft | 400 kts | 68° |
| 2026-04-25 01:09 | 4.16415 | -76.03702 | 20017 ft | 402 kts | 68° |
| 2026-04-25 01:09 | 4.17435 | -76.01085 | 20475 ft | 404 kts | 68° |
| 2026-04-25 01:09 | 4.18458 | -75.98449 | 20931 ft | 407 kts | 68° |
| 2026-04-25 01:10 | 4.19483 | -75.95801 | 21388 ft | 409 kts | 68° |
| 2026-04-25 01:10 | 4.20512 | -75.93137 | 21848 ft | 411 kts | 68° |
| 2026-04-25 01:10 | 4.21543 | -75.90459 | 22323 ft | 413 kts | 68° |
| 2026-04-25 01:10 | 4.22589 | -75.87768 | 22774 ft | 416 kts | 67° |
| 2026-04-25 01:11 | 4.23291 | -75.85979 | 22994 ft | 417 kts | 67° |
| 2026-04-25 01:11 | 4.24707 | -75.82394 | 23095 ft | 406 kts | 67° |
| 2026-04-25 01:11 | 4.25394 | -75.80658 | 23099 ft | 403 kts | 67° |
| 2026-04-25 01:11 | 4.26422 | -75.78054 | 23104 ft | 401 kts | 67° |
| 2026-04-25 01:12 | 4.27445 | -75.75462 | 23103 ft | 400 kts | 68° |
| 2026-04-25 01:12 | 4.28464 | -75.72876 | 23107 ft | 400 kts | 67° |
| 2026-04-25 01:12 | 4.29487 | -75.70278 | 23102 ft | 400 kts | 68° |
| 2026-04-25 01:12 | 4.30510 | -75.67681 | 23102 ft | 400 kts | 68° |
| 2026-04-25 01:13 | 4.31518 | -75.65117 | 23102 ft | 400 kts | 68° |
| 2026-04-25 01:13 | 4.32549 | -75.62489 | 23109 ft | 400 kts | 68° |
| 2026-04-25 01:13 | 4.33556 | -75.59929 | 23108 ft | 400 kts | 68° |
| 2026-04-25 01:13 | 4.34574 | -75.57344 | 23109 ft | 400 kts | 68° |
| 2026-04-25 01:14 | 4.35595 | -75.54744 | 23114 ft | 400 kts | 68° |
| 2026-04-25 01:14 | 4.36615 | -75.52147 | 23116 ft | 400 kts | 68° |
| 2026-04-25 01:14 | 4.37669 | -75.49573 | 23117 ft | 400 kts | 63° |
| 2026-04-25 01:14 | 4.38999 | -75.47124 | 23118 ft | 399 kts | 60° |
| 2026-04-25 01:15 | 4.40355 | -75.44696 | 23101 ft | 399 kts | 60° |
| 2026-04-25 01:15 | 4.41712 | -75.42264 | 23095 ft | 399 kts | 60° |
| 2026-04-25 01:15 | 4.43065 | -75.39834 | 23112 ft | 399 kts | 60° |
| 2026-04-25 01:15 | 4.44402 | -75.37429 | 23099 ft | 400 kts | 60° |
| 2026-04-25 01:16 | 4.45753 | -75.34994 | 23080 ft | 400 kts | 60° |
| 2026-04-25 01:16 | 4.47106 | -75.32554 | 23072 ft | 400 kts | 60° |
| 2026-04-25 01:16 | 4.48464 | -75.30110 | 23066 ft | 400 kts | 60° |
| 2026-04-25 01:16 | 4.49821 | -75.27670 | 23062 ft | 404 kts | 60° |
| 2026-04-25 01:17 | 4.51189 | -75.25209 | 22973 ft | 402 kts | 60° |
| 2026-04-25 01:17 | 4.52538 | -75.22779 | 22609 ft | 397 kts | 60° |
| 2026-04-25 01:17 | 4.53874 | -75.20371 | 22172 ft | 394 kts | 60° |
| 2026-04-25 01:17 | 4.55195 | -75.17991 | 21907 ft | 386 kts | 60° |
| 2026-04-25 01:18 | 4.56493 | -75.15651 | 21507 ft | 383 kts | 60° |
| 2026-04-25 01:18 | 4.57792 | -75.13313 | 21068 ft | 382 kts | 60° |
| 2026-04-25 01:18 | 4.59086 | -75.10990 | 20620 ft | 381 kts | 60° |
| 2026-04-25 01:18 | 4.60377 | -75.08679 | 20186 ft | 379 kts | 60° |
| 2026-04-25 01:19 | 4.61657 | -75.06382 | 19859 ft | 375 kts | 60° |
| 2026-04-25 01:19 | 4.62911 | -75.04123 | 19653 ft | 375 kts | 60° |
| 2026-04-25 01:19 | 4.64174 | -75.01842 | 19421 ft | 374 kts | 60° |
| 2026-04-25 01:19 | 4.65447 | -74.99538 | 19224 ft | 372 kts | 60° |
| 2026-04-25 01:20 | 4.66688 | -74.97299 | 18993 ft | 371 kts | 60° |
| 2026-04-25 01:20 | 4.67944 | -74.95042 | 18755 ft | 370 kts | 59° |
| 2026-04-25 01:20 | 4.69193 | -74.92793 | 18523 ft | 369 kts | 60° |
| 2026-04-25 01:20 | 4.70434 | -74.90555 | 18240 ft | 368 kts | 59° |
| 2026-04-25 01:21 | 4.71678 | -74.88317 | 17788 ft | 361 kts | 59° |
| 2026-04-25 01:21 | 4.72880 | -74.86152 | 17476 ft | 350 kts | 59° |
| 2026-04-25 01:21 | 4.74057 | -74.84030 | 17201 ft | 344 kts | 59° |
| 2026-04-25 01:21 | 4.75352 | -74.82053 | 17087 ft | 339 kts | 46° |
| 2026-04-25 01:22 | 4.77150 | -74.80567 | 16913 ft | 333 kts | 29° |
| 2026-04-25 01:22 | 4.79095 | -74.79298 | 16687 ft | 335 kts | 42° |
| 2026-04-25 01:22 | 4.80377 | -74.77395 | 16430 ft | 331 kts | 71° |
| 2026-04-25 01:22 | 4.80873 | -74.75164 | 16193 ft | 326 kts | 78° |
| 2026-04-25 01:23 | 4.81386 | -74.72969 | 15954 ft | 321 kts | 74° |
| 2026-04-25 01:23 | 4.81999 | -74.70821 | 15713 ft | 320 kts | 72° |
| 2026-04-25 01:23 | 4.82659 | -74.68690 | 15477 ft | 318 kts | 72° |
| 2026-04-25 01:23 | 4.83324 | -74.66581 | 15247 ft | 316 kts | 71° |
| 2026-04-25 01:24 | 4.83985 | -74.64509 | 15017 ft | 316 kts | 71° |
| 2026-04-25 01:24 | 4.84655 | -74.62414 | 14815 ft | 314 kts | 71° |
| 2026-04-25 01:24 | 4.85319 | -74.60334 | 14607 ft | 313 kts | 71° |
| 2026-04-25 01:24 | 4.85982 | -74.58251 | 14383 ft | 312 kts | 71° |
| 2026-04-25 01:25 | 4.86635 | -74.56195 | 14156 ft | 307 kts | 72° |
| 2026-04-25 01:25 | 4.87277 | -74.54174 | 13908 ft | 299 kts | 72° |
| 2026-04-25 01:25 | 4.87901 | -74.52209 | 13662 ft | 293 kts | 71° |
| 2026-04-25 01:25 | 4.88518 | -74.50267 | 13410 ft | 293 kts | 71° |
| 2026-04-25 01:26 | 4.89137 | -74.48323 | 13208 ft | 292 kts | 71° |
| 2026-04-25 01:26 | 4.89754 | -74.46384 | 13133 ft | 292 kts | 71° |
| 2026-04-25 01:26 | 4.90316 | -74.44432 | 13015 ft | 291 kts | 81° |
| 2026-04-25 01:26 | 4.90307 | -74.42408 | 12784 ft | 291 kts | 102° |
| 2026-04-25 01:27 | 4.89588 | -74.40540 | 12543 ft | 286 kts | 123° |
| 2026-04-25 01:27 | 4.88293 | -74.39054 | 12309 ft | 282 kts | 141° |
| 2026-04-25 01:27 | 4.86858 | -74.37762 | 12080 ft | 274 kts | 132° |
| 2026-04-25 01:28 | 4.84662 | -74.34916 | 11996 ft | 243 kts | 126° |
| 2026-04-25 01:28 | 4.83658 | -74.33575 | 12001 ft | 240 kts | 126° |
| 2026-04-25 01:28 | 4.82658 | -74.32240 | 12005 ft | 239 kts | 126° |
| 2026-04-25 01:28 | 4.81662 | -74.30911 | 12052 ft | 239 kts | 127° |
| 2026-04-25 01:29 | 4.80655 | -74.29586 | 12015 ft | 239 kts | 127° |
| 2026-04-25 01:29 | 4.79656 | -74.28285 | 11810 ft | 232 kts | 127° |
| 2026-04-25 01:29 | 4.78676 | -74.27010 | 11357 ft | 229 kts | 127° |
| 2026-04-25 01:29 | 4.77707 | -74.25749 | 10935 ft | 226 kts | 126° |
| 2026-04-25 01:30 | 4.76779 | -74.24540 | 10620 ft | 218 kts | 127° |
| 2026-04-25 01:30 | 4.75855 | -74.23313 | 10432 ft | 223 kts | 126° |
| 2026-04-25 01:30 | 4.74952 | -74.22077 | 10968 ft | 230 kts | 126° |
| 2026-04-25 01:30 | 4.73960 | -74.20710 | 11159 ft | 255 kts | 126° |
| 2026-04-25 01:31 | 4.72881 | -74.19246 | 11646 ft | 262 kts | 127° |
| 2026-04-25 01:31 | 4.71771 | -74.17791 | 12239 ft | 264 kts | 128° |
| 2026-04-25 01:31 | 4.70639 | -74.16321 | 12611 ft | 267 kts | 128° |
| 2026-04-25 01:31 | 4.69499 | -74.14840 | 12951 ft | 270 kts | 128° |
| 2026-04-25 01:32 | 4.68224 | -74.13472 | 13024 ft | 268 kts | 148° |
| 2026-04-25 01:32 | 4.66504 | -74.12817 | 13038 ft | 266 kts | 177° |
| 2026-04-25 01:32 | 4.64704 | -74.13066 | 13038 ft | 262 kts | 205° |
| 2026-04-25 01:32 | 4.63175 | -74.14043 | 13042 ft | 262 kts | 219° |
| 2026-04-25 01:33 | 4.61899 | -74.15331 | 13038 ft | 260 kts | 237° |
| 2026-04-25 01:33 | 4.61061 | -74.16929 | 13032 ft | 259 kts | 256° |
| 2026-04-25 01:33 | 4.60996 | -74.18744 | 13041 ft | 271 kts | 284° |
| 2026-04-25 01:33 | 4.61742 | -74.20503 | 13039 ft | 278 kts | 299° |
| 2026-04-25 01:34 | 4.62725 | -74.22183 | 13033 ft | 280 kts | 301° |
| 2026-04-25 01:34 | 4.63738 | -74.23854 | 13031 ft | 280 kts | 301° |
| 2026-04-25 01:34 | 4.64755 | -74.25520 | 13027 ft | 280 kts | 301° |
| 2026-04-25 01:34 | 4.65770 | -74.27183 | 13025 ft | 280 kts | 301° |
| 2026-04-25 01:35 | 4.66788 | -74.28847 | 13019 ft | 281 kts | 301° |
| 2026-04-25 01:35 | 4.67809 | -74.30517 | 13017 ft | 281 kts | 301° |
| 2026-04-25 01:35 | 4.68833 | -74.32187 | 13013 ft | 281 kts | 301° |
| 2026-04-25 01:35 | 4.69852 | -74.33853 | 13015 ft | 280 kts | 301° |
| 2026-04-25 01:36 | 4.70869 | -74.35514 | 13012 ft | 280 kts | 301° |
| 2026-04-25 01:36 | 4.71888 | -74.37175 | 12985 ft | 280 kts | 301° |
| 2026-04-25 01:36 | 4.72910 | -74.38841 | 12977 ft | 280 kts | 301° |
| 2026-04-25 01:36 | 4.73932 | -74.40506 | 12971 ft | 281 kts | 301° |
| 2026-04-25 01:37 | 4.74956 | -74.42172 | 12962 ft | 281 kts | 301° |
| 2026-04-25 01:37 | 4.75985 | -74.43845 | 12958 ft | 281 kts | 301° |
| 2026-04-25 01:37 | 4.77012 | -74.45514 | 12952 ft | 281 kts | 301° |
| 2026-04-25 01:37 | 4.78039 | -74.47178 | 12950 ft | 281 kts | 301° |
| 2026-04-25 01:38 | 4.79074 | -74.48846 | 12949 ft | 281 kts | 301° |
| 2026-04-25 01:38 | 4.80110 | -74.50508 | 12893 ft | 281 kts | 301° |
| 2026-04-25 01:38 | 4.81143 | -74.52167 | 12894 ft | 280 kts | 302° |
| 2026-04-25 01:38 | 4.82174 | -74.53820 | 12898 ft | 280 kts | 302° |
| 2026-04-25 01:39 | 4.83207 | -74.55472 | 12903 ft | 279 kts | 302° |
| 2026-04-25 01:39 | 4.84235 | -74.57123 | 12902 ft | 279 kts | 302° |
| 2026-04-25 01:39 | 4.85281 | -74.58760 | 12921 ft | 279 kts | 307° |
| 2026-04-25 01:39 | 4.86712 | -74.60055 | 12914 ft | 279 kts | 330° |
| 2026-04-25 01:40 | 4.88544 | -74.60671 | 12907 ft | 280 kts | 354° |
| 2026-04-25 01:40 | 4.90473 | -74.60476 | 12899 ft | 282 kts | 18° |
| 2026-04-25 01:40 | 4.92160 | -74.59490 | 12892 ft | 284 kts | 43° |
| 2026-04-25 01:40 | 4.93297 | -74.57882 | 12887 ft | 285 kts | 68° |
| 2026-04-25 01:41 | 4.93671 | -74.55939 | 12885 ft | 286 kts | 93° |
| 2026-04-25 01:41 | 4.93384 | -74.53952 | 12904 ft | 291 kts | 100° |
| 2026-04-25 01:41 | 4.93038 | -74.51948 | 12907 ft | 292 kts | 99° |
| 2026-04-25 01:41 | 4.92697 | -74.49942 | 12940 ft | 292 kts | 99° |
| 2026-04-25 01:42 | 4.92355 | -74.47926 | 12941 ft | 295 kts | 99° |
| 2026-04-25 01:42 | 4.92010 | -74.45898 | 12940 ft | 295 kts | 99° |
| 2026-04-25 01:42 | 4.91671 | -74.43909 | 12928 ft | 281 kts | 99° |
| 2026-04-25 01:42 | 4.91227 | -74.42063 | 12943 ft | 269 kts | 111° |
| 2026-04-25 01:43 | 4.90379 | -74.40388 | 12954 ft | 269 kts | 125° |
| 2026-04-25 01:43 | 4.89252 | -74.38886 | 12962 ft | 269 kts | 128° |
| 2026-04-25 01:43 | 4.88119 | -74.37396 | 12969 ft | 270 kts | 128° |
| 2026-04-25 01:43 | 4.86997 | -74.35914 | 12974 ft | 269 kts | 127° |
| 2026-04-25 01:44 | 4.85877 | -74.34422 | 13002 ft | 264 kts | 127° |
| 2026-04-25 01:44 | 4.84787 | -74.32971 | 12691 ft | 258 kts | 127° |
| 2026-04-25 01:44 | 4.83720 | -74.31562 | 12343 ft | 252 kts | 127° |
| 2026-04-25 01:44 | 4.82689 | -74.30201 | 12034 ft | 237 kts | 127° |
| 2026-04-25 01:45 | 4.81725 | -74.28928 | 11700 ft | 222 kts | 127° |
| 2026-04-25 01:45 | 4.80816 | -74.27729 | 11414 ft | 210 kts | 126° |
| 2026-04-25 01:45 | 4.79960 | -74.26600 | 11157 ft | 197 kts | 126° |
| 2026-04-25 01:45 | 4.79150 | -74.25537 | 10908 ft | 187 kts | 126° |
| 2026-04-25 01:46 | 4.78385 | -74.24530 | 10686 ft | 178 kts | 125° |
| 2026-04-25 01:46 | 4.77644 | -74.23552 | 10452 ft | 174 kts | 126° |
| 2026-04-25 01:46 | 4.76917 | -74.22590 | 10220 ft | 172 kts | 126° |
| 2026-04-25 01:46 | 4.76200 | -74.21638 | 9982 ft | 170 kts | 127° |
| 2026-04-25 01:47 | 4.75493 | -74.20700 | 9749 ft | 168 kts | 127° |
| 2026-04-25 01:47 | 4.74790 | -74.19771 | 9517 ft | 167 kts | 127° |
| 2026-04-25 01:47 | 4.74091 | -74.18840 | 9280 ft | 167 kts | 126° |
| 2026-04-25 01:47 | 4.73391 | -74.17906 | 9043 ft | 169 kts | 127° |
| 2026-04-25 01:48 | 4.72671 | -74.16970 | 8815 ft | 169 kts | 127° |
| 2026-04-25 01:48 | 4.71961 | -74.16027 | 8617 ft | 170 kts | 128° |
| 2026-04-25 01:48 | 4.71245 | -74.15086 | 8391 ft | 169 kts | 127° |
| 2026-04-25 01:48 | 4.70619 | -74.14257 | 8372 ft | 113 kts | 127° |
| 2026-04-25 01:49 | 4.70319 | -74.13861 | 8369 ft | 41 kts | 127° |
| 2026-04-25 01:49 | 4.70187 | -74.13709 | 8370 ft | 22 kts | 142° |
| 2026-04-25 01:49 | 4.70059 | -74.13646 | 8371 ft | 17 kts | 157° |
| 2026-04-25 01:49 | 4.69996 | -74.13621 | 8372 ft | 6 kts | 158° |
| 2026-04-25 01:50 | 4.69979 | -74.13614 | 8372 ft | 2 kts | 158° |
| 2026-04-25 01:50 | 4.69976 | -74.13613 | 8372 ft | 0 kts | 158° |
| 2026-04-25 01:51 | 4.69975 | -74.13612 | 8372 ft | 0 kts | 158° |
| 2026-04-25 01:52 | 4.69970 | -74.13610 | 8372 ft | 2 kts | 158° |
| 2026-04-25 01:52 | 4.69933 | -74.13602 | 8372 ft | 7 kts | 186° |
| 2026-04-25 01:52 | 4.69908 | -74.13638 | 8373 ft | 7 kts | 273° |
| 2026-04-25 01:52 | 4.69942 | -74.13690 | 8373 ft | 10 kts | 307° |
| 2026-04-25 01:53 | 4.69987 | -74.13748 | 8373 ft | 11 kts | 307° |
| 2026-04-25 01:53 | 4.70035 | -74.13812 | 8373 ft | 12 kts | 307° |
| 2026-04-25 01:53 | 4.70088 | -74.13882 | 8372 ft | 13 kts | 307° |
| 2026-04-25 01:53 | 4.70148 | -74.13963 | 8372 ft | 15 kts | 307° |
| 2026-04-25 01:54 | 4.70214 | -74.14050 | 8373 ft | 16 kts | 307° |
| 2026-04-25 01:54 | 4.70282 | -74.14140 | 8373 ft | 17 kts | 307° |
| 2026-04-25 01:54 | 4.70353 | -74.14234 | 8373 ft | 17 kts | 307° |
| 2026-04-25 01:54 | 4.70402 | -74.14315 | 8373 ft | 11 kts | 272° |
| 2026-04-25 01:55 | 4.70348 | -74.14370 | 8373 ft | 12 kts | 216° |
| 2026-04-25 01:55 | 4.70280 | -74.14423 | 8373 ft | 13 kts | 217° |
| 2026-04-25 01:55 | 4.70206 | -74.14478 | 8371 ft | 14 kts | 217° |
| 2026-04-25 01:55 | 4.70129 | -74.14536 | 8373 ft | 12 kts | 217° |
| 2026-04-25 01:56 | 4.70108 | -74.14552 | 8373 ft | 0 kts | 217° |
| 2026-04-25 01:56 | 4.70107 | -74.14553 | 8371 ft | 1 kts | 217° |
| 2026-04-25 01:56 | 4.70098 | -74.14560 | 8373 ft | 3 kts | 217° |
| 2026-04-25 01:56 | 4.70071 | -74.14579 | 8373 ft | 6 kts | 209° |
| 2026-04-25 01:57 | 4.69991 | -74.14506 | 8373 ft | 10 kts | 127° |
| 2026-04-25 01:57 | 4.69949 | -74.14451 | 8371 ft | 10 kts | 127° |
| 2026-04-25 01:57 | 4.69927 | -74.14424 | 8373 ft | 2 kts | 128° |
| 2026-04-25 01:58 | 4.69917 | -74.14410 | 8373 ft | 3 kts | 128° |
| 2026-04-25 01:58 | 4.69901 | -74.14389 | 8373 ft | 4 kts | 128° |
| 2026-04-25 01:58 | 4.69882 | -74.14364 | 8373 ft | 5 kts | 126° |
| 2026-04-25 01:58 | 4.69861 | -74.14332 | 8373 ft | 6 kts | 115° |
| 2026-04-25 01:59 | 4.69870 | -74.14293 | 8373 ft | 6 kts | 57° |
| 2026-04-25 01:59 | 4.69903 | -74.14261 | 8373 ft | 6 kts | 37° |
| 2026-04-25 01:59 | 4.69919 | -74.14249 | 8373 ft | 1 kts | 37° |
| 2026-04-25 01:59 | 4.69920 | -74.14248 | 8373 ft | 0 kts | 37° |